AirNav   Air Wisconsin pilot careers
 
 1475 users online  

OR34 Whippet Field Airport
Sisters, Oregon, USA

GOING TO SISTERS?


FAA INFORMATION EFFECTIVE 08 NOVEMBER 2018

Location

FAA Identifier: OR34
Lat/Long: 44-19-20.4190N / 121-26-00.1530W
44-19.340317N / 121-26.002550W
44.3223386 / -121.4333758
(estimated)
Elevation: 3040 ft. / 926.6 m (surveyed)
Variation: 18E (1985)
From city: 6 miles NE of SISTERS, OR
Time zone: UTC -8 (UTC -7 during Daylight Saving Time)
Zip code: 97759

Airport Operations

Airport use: Private use. Permission required prior to landing
Activation date: 02/1989
Control tower: no
ARTCC: SEATTLE CENTER
FSS: MC MINNVILLE FLIGHT SERVICE STATION
Attendance: CONTINUOUS
Wind indicator: yes
Segmented circle: no
Lights: FOR RY LGTS CALL 503-548-0658.

Airport Communications

WX ASOS at RDM (13 nm E): 119.025 (541-504-8743)
WX AWOS-3 at BDN (17 nm SE): 134.425 (541-382-1477)

Nearby radio navigation aids

VOR radial/distance  VOR name  Freq  Var
DSDr289/7.0DESCHUTES VORTAC117.6018E

Airport Services

Runway Information

Runway 6/24

Dimensions: 2450 x 60 ft. / 747 x 18 m
Surface: turf, in fair condition
Runway edge lights: non-standard
RED EDGE LIGHTING EAST 1500 FT OF RY.
RUNWAY 6  RUNWAY 24
Traffic pattern: leftright
Obstructions: trees, 1000 ft. from runway, 17:1 slope to cleartrees, 1500 ft. from runway, 20:1 slope to clear

Airport Ownership and Management from official FAA records

Ownership: Privately-owned
Owner: JON & ELIZABETH RENNER
69695 HOLMES ROAD
SISTERS, OR 97759
Phone 503-548-0658
Manager: JON & ELIZABETH RENNER
69695 HOLMES ROAD
SISTERS, OR 97759
Phone 503-548-0658

Airport Operational Statistics

Aircraft based on the field: 1
Single engine airplanes: 1
    

Instrument Procedures

There are no published instrument procedures at OR34.

Some nearby airports with instrument procedures:

KRDM - Roberts Field Airport (13 nm E)
KBDN - Bend Municipal Airport (17 nm SE)
S39 - Prineville Airport (23 nm E)
S33 - Madras Municipal Airport (24 nm NE)
S21 - Sunriver Airport (27 nm S)
 
Loc | Ops | Rwys | IFR | FBO | Links
Com | Nav | Svcs | Stats | Notes


 
Area around OR34 (Whippet Field Airport)
 
Road maps at: MapQuest Bing Google
 
Aerial photo
WARNING: Photo may not be current or correct
Aerial photo of OR34 (Whippet Field Airport)
Photo taken 24-Mar-2014
looking east.

Do you have a better or more recent aerial photo of Whippet Field Airport that you would like to share? If so, please send us your photo.

 
Sectional chart

 
Airport distance calculator
Flying to Whippet Field Airport? Find the distance to fly.

From to OR34

Sunrise and sunset
Times for 20-Nov-2018
 Local
(UTC-8)
 Zulu
(UTC)
Morning civil twilight06:3814:38
Sunrise07:0915:09
Sunset16:3400:34
Evening civil twilight17:0501:05

Current date and time
Zulu (UTC)  20-Nov-2018 18:43:58
Local (UTC-8)  20-Nov-2018 10:43:58
 
METAR
6K5 
5nm W 
SuperAWOS
201815Z AUTO 00000KT 01/M04 A3005
KRDM 
13nm E 
201756Z 04004KT 10SM CLR 06/M05 A3009 RMK AO2 SLP209 I6000 T00561050 10056 21139 58003
KBDN 
17nm SE 
201815Z AUTO 13007KT 10SM CLR 06/M06 A3009 RMK AO2
TAF
KRDM 
13nm E 
201723Z 2018/2118 VRB05KT P6SM SCT200 FM210600 17005KT P6SM SCT120 BKN200 FM211100 16005KT P6SM SCT060 BKN120
KBDN 
17nm SE 
201723Z 2018/2118 VRB04KT P6SM SCT200 FM210600 18005KT P6SM SCT120 BKN200 FM211100 19010KT P6SM SCT070 BKN100
NOTAMs
Click for the latest NOTAMs
NOTAMs are issued by the DoD/FAA and will open in a separate window not controlled by AirNav.

 

 
 

Would you like to see your business listed on this page?

 If your business provides an interesting product or service to pilots, flight crews, aircraft, or users of the Whippet Field Airport, you should consider listing it here.  To start the listing process, click on the button below
 
Add a business
 

Other Pages about Whippet Field Airport

Update a link
 
Copyright © AirNav, LLC. All rights reserved. Privacy Policy  Contact